• Join FlightAware (Why Join?)
  • Login
  • US Flag 
12:22AM EDT


 

Airport Tracker/Info


-or-


 

Live Flight TrackerFlight Track Log ✈ AAL1963 ✈ 12-Jun-2013 ✈ KDFW - MMUN / CUN

Flight Track Log - Related Links

Times and Time Zones

All times are in EDT time to prevent confusion due to time zone crossing. See the AAL1963 flight status page for this flight to view local times or setup timezone preferences in your user account.

Time Position Orientation Groundspeed Altitude Reporting Facility
EDT Latitude Longitude Course Direction KTS MPH feet Rate Location/Type
09:02AM 32.8833 -97.0500 166° South 159 183 1,300  Level Dallas / Fort Worth TRACON
09:03AM 32.8333 -97.0500 180° South 227 261 4,100 2,580 Climbing Dallas / Fort Worth TRACON
09:04AM 32.7667 -97.0500 180° South 243 280 7,100 2,220 Climbing Dallas / Fort Worth TRACON
09:05AM 32.4184 -96.8804 159° South  Level FlightAware Approximate
09:06AM 32.3082 -96.8187 148° Southeast  Level FlightAware Approximate
09:06AM 32.5989 -96.9844 162° South 289 333 11,200  Level Fort Worth Center
09:07AM 32.1931 -96.7729 166° South  Level FlightAware Approximate
09:07AM 32.5111 -96.9381 156° South 337 388 13,200  Level Fort Worth Center
09:08AM 32.4189 -96.8892 156° South 355 409 15,100 1,800 Climbing Fort Worth Center
09:09AM 32.3331 -96.8406 154° Southeast 372 428 16,900 1,800 Climbing Fort Worth Center
09:10AM 32.2161 -96.8092 167° South 390 449 18,800 1,800 Climbing Fort Worth Center
09:11AM 32.1033 -96.8150 183° South 403 464 20,600 1,740 Climbing Fort Worth Center
09:12AM 31.9864 -96.8133 179° South 408 470 22,300 1,560 Climbing Fort Worth Center
09:13AM 31.8861 -96.7894 169° South 408 470 23,800 1,500 Climbing Fort Worth Center
09:13AM 31.8447 -96.7806 170° South 423 487 24,300 1,440 Climbing Houston Center
09:14AM 31.7228 -96.7558 170° South 436 502 25,800 1,860 Climbing Houston Center
09:16AM 31.6000 -96.7300 170° South 440 506 28,200 1,980 Climbing Houston Center
09:17AM 31.4706 -96.7022 170° South 460 529 30,000 2,160 Climbing Houston Center
09:18AM 31.3222 -96.6722 170° South 461 531 32,700 2,160 Climbing Houston Center
09:19AM 31.2214 -96.5822 143° Southeast 465 535 34,500 1,620 Climbing Houston Center
09:20AM 31.1314 -96.4753 134° Southeast 455 524 36,100 1,200 Climbing Houston Center
09:21AM 31.0422 -96.3708 135° Southeast 457 526 37,000 420 Climbing Houston Center
09:22AM 30.9553 -96.2625 133° Southeast 455 524 37,000  Level Houston Center
09:23AM 30.8633 -96.1575 136° Southeast 457 526 37,000  Level Houston Center
09:24AM 30.7742 -96.0506 134° Southeast 454 522 37,000  Level Houston Center
09:25AM 30.6719 -95.9283 134° Southeast 455 524 37,000  Level Houston Center
09:26AM 30.5878 -95.8272 134° Southeast 455 524 37,000  Level Houston Center
09:27AM 30.5000 -95.7208 134° Southeast 457 526 37,000  Level Houston Center
09:28AM 30.4119 -95.6156 134° Southeast 455 524 37,000  Level Houston Center
09:29AM 30.3231 -95.5103 134° Southeast 455 524 37,000  Level Houston Center
09:30AM 30.2172 -95.3828 134° Southeast 457 526 37,000  Level Houston Center
09:31AM 30.1286 -95.2761 134° Southeast 458 527 37,000  Level Houston Center
09:32AM 30.0386 -95.1711 135° Southeast 457 526 37,000  Level Houston Center
09:33AM 29.9469 -95.0642 135° Southeast 462 532 37,000  Level Houston Center
09:34AM 29.8553 -94.9556 134° Southeast 466 536 37,000  Level Houston Center
09:35AM 29.7619 -94.8481 135° Southeast 469 540 37,000  Level Houston Center
09:36AM 29.6700 -94.7400 134° Southeast 467 537 37,000  Level Houston Center
09:37AM 29.5594 -94.6119 135° Southeast 466 536 37,000  Level Houston Center
09:38AM 29.4681 -94.5058 135° Southeast 466 536 37,000  Level Houston Center
09:39AM 29.3753 -94.3992 135° Southeast 470 541 37,000  Level Houston Center
09:40AM 29.2839 -94.2942 135° Southeast 465 535 37,000  Level Houston Center
09:41AM 29.1925 -94.1894 135° Southeast 465 535 37,000  Level Houston Center
09:42AM 29.1019 -94.0856 135° Southeast 463 533 37,000  Level Houston Center
09:43AM 28.9933 -93.9622 135° Southeast 457 526 37,000  Level Houston Center
09:45AM 28.9022 -93.8578 135° Southeast 462 532 37,000  Level Houston Center
09:46AM 28.8122 -93.7567 135° Southeast 457 526 37,000  Level Houston Center
09:47AM 28.7208 -93.6542 135° Southeast 460 529 37,000  Level Houston Center
09:48AM 28.6297 -93.5500 135° Southeast 462 532 37,000  Level Houston Center
09:49AM 28.5375 -93.4467 135° Southeast 465 535 37,000  Level Houston Center
09:50AM 28.4264 -93.3242 136° Southeast 466 536 37,000  Level Houston Center
09:51AM 28.3300 -93.2167 136° Southeast 468 539 37,000  Level Houston Center
09:52AM 28.2381 -93.1100 134° Southeast 472 543 37,000  Level Houston Center
09:53AM 28.1436 -93.0072 136° Southeast 473 544 37,000  Level Houston Center
09:54AM 28.0489 -92.9036 136° Southeast 473 544 37,000  Level Houston Center
09:55AM 27.9550 -92.7972 135° Southeast 476 548 37,000  Level Houston Center
09:56AM 27.8594 -92.6919 136° Southeast 479 551 37,000  Level Houston Center
09:57AM 27.7453 -92.5667 136° Southeast 479 551 37,000  Level Houston Center
09:58AM 27.6497 -92.4614 136° Southeast 480 552 37,000  Level Houston Center
09:59AM 27.5553 -92.3547 135° Southeast 481 554 37,000 -60 Level Houston Center
10:00AM 27.4597 -92.2508 136° Southeast 479 551 36,900  Descending Houston Center
10:01AM 27.3647 -92.1489 136° Southeast 474 545 37,000  Climbing Houston Center
10:02AM 27.2511 -92.0256 136° Southeast 474 545 37,000  Level Houston Center
10:03AM 27.1533 -91.9239 137° Southeast 477 549 37,000  Level Houston Center
10:04AM 27.0453 -91.8392 145° Southeast 474 545 37,000  Level Houston Center
10:06AM 26.9194 -91.7379 144° Southeast  Level FlightAware Approximate
10:13AM 26.2403 -91.1968 145° Southeast  Level FlightAware Approximate
10:14AM 26.1430 -91.1202 145° Southeast  Level FlightAware Approximate
10:15AM 26.0457 -91.0437 145° Southeast  Level FlightAware Approximate
10:16AM 25.9483 -90.9674 145° Southeast  Level FlightAware Approximate
10:17AM 25.8509 -90.8912 145° Southeast  Level FlightAware Approximate
10:18AM 25.7534 -90.8151 145° Southeast  Level FlightAware Approximate
10:19AM 25.6559 -90.7391 145° Southeast  Level FlightAware Approximate
10:20AM 25.5584 -90.6633 145° Southeast  Level FlightAware Approximate
10:21AM 25.4608 -90.5876 145° Southeast  Level FlightAware Approximate
10:22AM 25.3632 -90.5120 145° Southeast  Level FlightAware Approximate
10:23AM 25.2655 -90.4365 145° Southeast  Level FlightAware Approximate
10:24AM 25.1679 -90.3612 145° Southeast  Level FlightAware Approximate
10:25AM 25.0701 -90.2859 145° Southeast  Level FlightAware Approximate
10:26AM 24.9723 -90.2108 145° Southeast  Level FlightAware Approximate
10:27AM 24.8745 -90.1358 145° Southeast  Level FlightAware Approximate
10:28AM 24.7767 -90.0610 145° Southeast  Level FlightAware Approximate
10:29AM 24.6788 -89.9862 145° Southeast  Level FlightAware Approximate
10:30AM 24.5809 -89.9116 145° Southeast  Level FlightAware Approximate
10:31AM 24.4847 -89.8347 138° Southeast  Level FlightAware Approximate
10:32AM 24.3869 -89.7599 145° Southeast  Level FlightAware Approximate
10:33AM 24.2889 -89.6855 145° Southeast  Level FlightAware Approximate
10:34AM 24.1909 -89.6113 145° Southeast  Level FlightAware Approximate
10:35AM 24.0929 -89.5371 145° Southeast  Level FlightAware Approximate
10:36AM 23.9948 -89.4630 145° Southeast  Level FlightAware Approximate
10:37AM 23.8966 -89.3893 146° Southeast  Level FlightAware Approximate
10:38AM 23.7981 -89.3161 146° Southeast  Level FlightAware Approximate
10:39AM 23.6995 -89.2430 146° Southeast  Level FlightAware Approximate
10:40AM 23.6009 -89.1700 146° Southeast  Level FlightAware Approximate
10:41AM 23.5023 -89.0971 146° Southeast  Level FlightAware Approximate
10:42AM 23.4037 -89.0243 146° Southeast  Level FlightAware Approximate
10:43AM 23.3050 -88.9516 146° Southeast  Level FlightAware Approximate
10:44AM 23.2063 -88.8791 146° Southeast  Level FlightAware Approximate
10:45AM 23.1058 -88.8094 148° Southeast  Level FlightAware Approximate
10:46AM 23.0082 -88.7355 143° Southeast  Level FlightAware Approximate
10:47AM 22.9131 -88.6576 143° Southeast  Level FlightAware Approximate
10:48AM 22.8136 -88.5868 148° Southeast  Level FlightAware Approximate
10:49AM 22.7131 -88.5175 144° Southeast  Level FlightAware Approximate
10:50AM 22.6163 -88.4423 144° Southeast  Level FlightAware Approximate
10:51AM 22.5164 -88.3720 148° Southeast  Level FlightAware Approximate
10:52AM 22.4223 -88.2945 155° Southeast  Level FlightAware Approximate
10:53AM 22.3191 -88.2310 145° Southeast  Level FlightAware Approximate
10:54AM 22.2213 -88.1576 145° Southeast  Level FlightAware Approximate
10:55AM 22.1376 -88.0699 135° Southeast  Level FlightAware Approximate
10:56AM 22.0536 -87.9788 135° Southeast  Level FlightAware Approximate
10:57AM 21.9695 -87.8877 135° Southeast  Level FlightAware Approximate
10:58AM 21.8844 -87.7979 136° Southeast  Level FlightAware Approximate
10:59AM 21.7990 -87.7084 136° Southeast  Level FlightAware Approximate
11:00AM 21.7135 -87.6191 136° Southeast  Level FlightAware Approximate
11:01AM 21.6280 -87.5298 136° Southeast  Level FlightAware Approximate
11:02AM 21.5453 -87.4377 132° Southeast  Level FlightAware Approximate
11:03AM 21.4627 -87.3456 134° Southeast  Level FlightAware Approximate
11:04AM 21.3799 -87.2536 134° Southeast  Level FlightAware Approximate
11:05AM 21.2961 -87.1628 137° Southeast  Level FlightAware Approximate
11:06AM 21.2090 -87.0756 137° Southeast  Level FlightAware Approximate
11:07AM 21.1332 -86.9832 137° Southeast  Level FlightAware Approximate
11:08AM 21.0461 -86.8961 137° Southeast  Level FlightAware Approximate
11:09AM 21.0365 -86.8771 137° Southeast  Level Estimated
11:10AM 21.0365 -86.8771 137° Southeast  Level Estimated